sensor_id;sensor_type;location;lat;lon;timestamp;P1;durP1;ratioP1;P2;durP2;ratioP2
21032;SDS011;10675;47.976;7.824;2023-03-01T00:01:09;9.03;;;5.40;;
21032;SDS011;10675;47.976;7.824;2023-03-01T00:03:39;6.23;;;4.87;;
21032;SDS011;10675;47.976;7.824;2023-03-01T00:06:05;10.87;;;4.93;;
21032;SDS011;10675;47.976;7.824;2023-03-01T00:08:32;9.47;;;5.30;;
21032;SDS011;10675;47.976;7.824;2023-03-01T00:11:02;8.60;;;5.30;;
21032;SDS011;10675;47.976;7.824;2023-03-01T00:13:46;6.80;;;4.60;;
21032;SDS011;10675;47.976;7.824;2023-03-01T00:16:14;7.07;;;4.97;;
21032;SDS011;10675;47.976;7.824;2023-03-01T00:18:48;9.33;;;4.93;;
21032;SDS011;10675;47.976;7.824;2023-03-01T00:21:13;7.13;;;5.47;;
21032;SDS011;10675;47.976;7.824;2023-03-01T00:23:39;6.70;;;4.73;;
21032;SDS011;10675;47.976;7.824;2023-03-01T00:26:05;11.37;;;4.23;;
21032;SDS011;10675;47.976;7.824;2023-03-01T00:28:33;8.03;;;4.70;;
21032;SDS011;10675;47.976;7.824;2023-03-01T00:31:09;10.80;;;5.50;;
21032;SDS011;10675;47.976;7.824;2023-03-01T00:33:36;7.17;;;4.87;;
21032;SDS011;10675;47.976;7.824;2023-03-01T00:36:02;8.30;;;4.53;;
21032;SDS011;10675;47.976;7.824;2023-03-01T00:38:28;10.57;;;4.53;;
21032;SDS011;10675;47.976;7.824;2023-03-01T00:40:54;8.93;;;5.33;;
21032;SDS011;10675;47.976;7.824;2023-03-01T00:43:20;9.37;;;5.60;;
21032;SDS011;10675;47.976;7.824;2023-03-01T00:45:45;6.67;;;4.30;;
21032;SDS011;10675;47.976;7.824;2023-03-01T00:48:11;7.83;;;4.87;;
21032;SDS011;10675;47.976;7.824;2023-03-01T00:50:36;7.30;;;4.93;;
21032;SDS011;10675;47.976;7.824;2023-03-01T00:53:02;6.13;;;4.00;;
21032;SDS011;10675;47.976;7.824;2023-03-01T00:55:27;6.93;;;4.67;;
21032;SDS011;10675;47.976;7.824;2023-03-01T00:57:53;6.00;;;4.23;;
21032;SDS011;10675;47.976;7.824;2023-03-01T01:00:19;7.20;;;4.87;;
21032;SDS011;10675;47.976;7.824;2023-03-01T01:02:45;6.17;;;4.53;;
21032;SDS011;10675;47.976;7.824;2023-03-01T01:05:10;7.47;;;4.67;;
21032;SDS011;10675;47.976;7.824;2023-03-01T01:07:36;8.97;;;4.43;;
21032;SDS011;10675;47.976;7.824;2023-03-01T01:10:02;8.40;;;4.33;;
21032;SDS011;10675;47.976;7.824;2023-03-01T01:12:28;9.73;;;5.27;;
21032;SDS011;10675;47.976;7.824;2023-03-01T01:14:53;8.23;;;4.83;;
21032;SDS011;10675;47.976;7.824;2023-03-01T01:17:19;10.13;;;5.53;;
21032;SDS011;10675;47.976;7.824;2023-03-01T01:19:45;9.60;;;5.33;;
21032;SDS011;10675;47.976;7.824;2023-03-01T01:22:10;6.30;;;4.07;;
21032;SDS011;10675;47.976;7.824;2023-03-01T01:24:36;8.77;;;5.07;;
21032;SDS011;10675;47.976;7.824;2023-03-01T01:27:01;7.57;;;4.23;;
21032;SDS011;10675;47.976;7.824;2023-03-01T01:29:27;7.23;;;4.50;;
21032;SDS011;10675;47.976;7.824;2023-03-01T01:31:53;7.93;;;4.63;;
21032;SDS011;10675;47.976;7.824;2023-03-01T01:34:19;7.27;;;4.57;;
21032;SDS011;10675;47.976;7.824;2023-03-01T01:36:49;8.17;;;4.63;;
21032;SDS011;10675;47.976;7.824;2023-03-01T01:39:18;4.90;;;4.37;;
21032;SDS011;10675;47.976;7.824;2023-03-01T01:41:43;6.50;;;4.23;;
21032;SDS011;10675;47.976;7.824;2023-03-01T01:44:10;6.00;;;4.20;;
21032;SDS011;10675;47.976;7.824;2023-03-01T01:47:01;8.87;;;5.00;;
21032;SDS011;10675;47.976;7.824;2023-03-01T01:49:42;8.73;;;4.83;;
21032;SDS011;10675;47.976;7.824;2023-03-01T01:52:20;8.93;;;4.93;;
21032;SDS011;10675;47.976;7.824;2023-03-01T01:55:03;6.50;;;3.57;;
21032;SDS011;10675;47.976;7.824;2023-03-01T01:57:37;9.03;;;4.67;;
21032;SDS011;10675;47.976;7.824;2023-03-01T02:00:07;9.37;;;5.07;;
21032;SDS011;10675;47.976;7.824;2023-03-01T02:02:44;7.53;;;4.70;;
21032;SDS011;10675;47.976;7.824;2023-03-01T02:05:14;9.37;;;5.63;;
21032;SDS011;10675;47.976;7.824;2023-03-01T02:07:45;9.43;;;4.70;;
21032;SDS011;10675;47.976;7.824;2023-03-01T02:10:12;7.17;;;4.63;;
21032;SDS011;10675;47.976;7.824;2023-03-01T02:12:38;6.93;;;5.07;;
21032;SDS011;10675;47.976;7.824;2023-03-01T02:15:04;9.40;;;4.53;;
21032;SDS011;10675;47.976;7.824;2023-03-01T02:17:30;8.90;;;5.17;;
21032;SDS011;10675;47.976;7.824;2023-03-01T02:22:32;9.53;;;4.67;;
21032;SDS011;10675;47.976;7.824;2023-03-01T02:27:46;9.53;;;4.63;;
21032;SDS011;10675;47.976;7.824;2023-03-01T02:30:21;8.07;;;5.20;;
21032;SDS011;10675;47.976;7.824;2023-03-01T02:32:49;5.97;;;4.67;;
21032;SDS011;10675;47.976;7.824;2023-03-01T02:35:19;7.07;;;4.33;;
21032;SDS011;10675;47.976;7.824;2023-03-01T02:37:45;9.13;;;4.50;;
21032;SDS011;10675;47.976;7.824;2023-03-01T02:40:14;5.90;;;4.10;;
21032;SDS011;10675;47.976;7.824;2023-03-01T02:43:15;5.27;;;4.50;;
21032;SDS011;10675;47.976;7.824;2023-03-01T02:45:35;5.23;;;4.17;;
21032;SDS011;10675;47.976;7.824;2023-03-01T02:48:00;6.83;;;4.60;;
21032;SDS011;10675;47.976;7.824;2023-03-01T02:55:23;7.63;;;4.13;;
21032;SDS011;10675;47.976;7.824;2023-03-01T02:57:49;7.17;;;4.33;;
21032;SDS011;10675;47.976;7.824;2023-03-01T03:00:19;9.83;;;5.30;;
21032;SDS011;10675;47.976;7.824;2023-03-01T03:02:50;7.47;;;4.63;;
21032;SDS011;10675;47.976;7.824;2023-03-01T03:05:19;6.47;;;4.70;;
21032;SDS011;10675;47.976;7.824;2023-03-01T03:07:47;9.70;;;4.93;;
21032;SDS011;10675;47.976;7.824;2023-03-01T03:10:15;5.73;;;4.27;;
21032;SDS011;10675;47.976;7.824;2023-03-01T03:12:44;11.07;;;5.20;;
21032;SDS011;10675;47.976;7.824;2023-03-01T03:15:13;7.23;;;4.60;;
21032;SDS011;10675;47.976;7.824;2023-03-01T03:17:39;7.03;;;4.10;;
21032;SDS011;10675;47.976;7.824;2023-03-01T03:20:07;6.57;;;4.13;;
21032;SDS011;10675;47.976;7.824;2023-03-01T03:22:37;6.40;;;4.43;;
21032;SDS011;10675;47.976;7.824;2023-03-01T03:25:06;7.73;;;4.83;;
21032;SDS011;10675;47.976;7.824;2023-03-01T03:27:36;6.80;;;3.80;;
21032;SDS011;10675;47.976;7.824;2023-03-01T03:30:04;7.37;;;4.57;;
21032;SDS011;10675;47.976;7.824;2023-03-01T03:32:33;7.80;;;4.97;;
21032;SDS011;10675;47.976;7.824;2023-03-01T03:35:03;9.60;;;4.93;;
21032;SDS011;10675;47.976;7.824;2023-03-01T03:37:34;8.63;;;4.67;;
21032;SDS011;10675;47.976;7.824;2023-03-01T03:40:19;9.10;;;4.63;;
21032;SDS011;10675;47.976;7.824;2023-03-01T03:42:45;6.00;;;4.23;;
21032;SDS011;10675;47.976;7.824;2023-03-01T03:45:10;8.77;;;5.30;;
21032;SDS011;10675;47.976;7.824;2023-03-01T03:47:36;7.10;;;4.87;;
21032;SDS011;10675;47.976;7.824;2023-03-01T03:50:01;7.33;;;5.00;;
21032;SDS011;10675;47.976;7.824;2023-03-01T03:52:27;7.67;;;4.83;;
21032;SDS011;10675;47.976;7.824;2023-03-01T03:54:52;8.00;;;5.30;;
21032;SDS011;10675;47.976;7.824;2023-03-01T03:57:18;7.37;;;4.97;;
21032;SDS011;10675;47.976;7.824;2023-03-01T03:59:43;9.60;;;5.17;;
21032;SDS011;10675;47.976;7.824;2023-03-01T04:02:09;9.70;;;5.27;;
21032;SDS011;10675;47.976;7.824;2023-03-01T04:04:34;9.10;;;5.20;;
21032;SDS011;10675;47.976;7.824;2023-03-01T04:07:00;10.53;;;5.13;;
21032;SDS011;10675;47.976;7.824;2023-03-01T04:09:25;9.97;;;5.13;;
21032;SDS011;10675;47.976;7.824;2023-03-01T04:11:51;14.20;;;5.73;;
21032;SDS011;10675;47.976;7.824;2023-03-01T04:14:16;14.33;;;5.13;;
21032;SDS011;10675;47.976;7.824;2023-03-01T04:16:42;9.23;;;4.70;;
21032;SDS011;10675;47.976;7.824;2023-03-01T04:19:07;9.60;;;5.60;;
21032;SDS011;10675;47.976;7.824;2023-03-01T04:21:34;9.27;;;5.33;;
21032;SDS011;10675;47.976;7.824;2023-03-01T04:24:01;10.07;;;5.43;;
21032;SDS011;10675;47.976;7.824;2023-03-01T04:26:28;10.03;;;5.30;;
21032;SDS011;10675;47.976;7.824;2023-03-01T04:28:54;12.17;;;5.83;;
21032;SDS011;10675;47.976;7.824;2023-03-01T04:31:20;9.00;;;4.93;;
21032;SDS011;10675;47.976;7.824;2023-03-01T04:33:52;11.87;;;5.33;;
21032;SDS011;10675;47.976;7.824;2023-03-01T04:36:20;7.97;;;5.47;;
21032;SDS011;10675;47.976;7.824;2023-03-01T04:38:51;10.23;;;5.20;;
21032;SDS011;10675;47.976;7.824;2023-03-01T04:41:17;8.13;;;5.63;;
21032;SDS011;10675;47.976;7.824;2023-03-01T04:43:44;9.40;;;5.73;;
21032;SDS011;10675;47.976;7.824;2023-03-01T04:46:11;8.27;;;5.13;;
21032;SDS011;10675;47.976;7.824;2023-03-01T04:48:39;8.47;;;5.87;;
21032;SDS011;10675;47.976;7.824;2023-03-01T04:51:07;9.27;;;6.03;;
21032;SDS011;10675;47.976;7.824;2023-03-01T04:53:33;12.77;;;5.83;;
21032;SDS011;10675;47.976;7.824;2023-03-01T04:56:01;8.10;;;5.17;;
21032;SDS011;10675;47.976;7.824;2023-03-01T04:58:27;19.33;;;5.90;;
21032;SDS011;10675;47.976;7.824;2023-03-01T05:00:53;11.50;;;5.73;;
21032;SDS011;10675;47.976;7.824;2023-03-01T05:03:20;8.77;;;5.53;;
21032;SDS011;10675;47.976;7.824;2023-03-01T05:05:48;9.77;;;6.13;;
21032;SDS011;10675;47.976;7.824;2023-03-01T05:08:15;9.77;;;5.67;;
21032;SDS011;10675;47.976;7.824;2023-03-01T05:10:46;7.87;;;5.40;;
21032;SDS011;10675;47.976;7.824;2023-03-01T05:13:14;10.07;;;6.03;;
21032;SDS011;10675;47.976;7.824;2023-03-01T05:15:45;14.93;;;5.63;;
21032;SDS011;10675;47.976;7.824;2023-03-01T05:18:12;12.30;;;6.57;;
21032;SDS011;10675;47.976;7.824;2023-03-01T05:20:38;9.73;;;6.03;;
21032;SDS011;10675;47.976;7.824;2023-03-01T05:23:04;14.57;;;6.07;;
21032;SDS011;10675;47.976;7.824;2023-03-01T05:25:30;9.20;;;5.80;;
21032;SDS011;10675;47.976;7.824;2023-03-01T05:27:58;12.17;;;6.23;;
21032;SDS011;10675;47.976;7.824;2023-03-01T05:30:24;13.20;;;6.60;;
21032;SDS011;10675;47.976;7.824;2023-03-01T05:32:50;11.67;;;7.07;;
21032;SDS011;10675;47.976;7.824;2023-03-01T05:35:20;10.43;;;5.70;;
21032;SDS011;10675;47.976;7.824;2023-03-01T05:37:47;10.63;;;6.40;;
21032;SDS011;10675;47.976;7.824;2023-03-01T05:40:14;11.53;;;5.73;;
21032;SDS011;10675;47.976;7.824;2023-03-01T05:42:46;12.33;;;5.37;;
21032;SDS011;10675;47.976;7.824;2023-03-01T05:45:20;9.73;;;6.03;;
21032;SDS011;10675;47.976;7.824;2023-03-01T05:47:48;7.70;;;5.73;;
21032;SDS011;10675;47.976;7.824;2023-03-01T05:50:19;8.60;;;5.40;;
21032;SDS011;10675;47.976;7.824;2023-03-01T05:52:56;11.93;;;6.80;;
21032;SDS011;10675;47.976;7.824;2023-03-01T05:55:24;11.17;;;5.80;;
21032;SDS011;10675;47.976;7.824;2023-03-01T05:57:49;12.47;;;5.77;;
21032;SDS011;10675;47.976;7.824;2023-03-01T06:00:17;11.90;;;6.37;;
21032;SDS011;10675;47.976;7.824;2023-03-01T06:02:44;11.37;;;6.83;;
21032;SDS011;10675;47.976;7.824;2023-03-01T06:05:11;10.23;;;5.93;;
21032;SDS011;10675;47.976;7.824;2023-03-01T06:07:38;9.57;;;6.13;;
21032;SDS011;10675;47.976;7.824;2023-03-01T06:10:04;8.83;;;6.00;;
21032;SDS011;10675;47.976;7.824;2023-03-01T06:12:31;11.10;;;5.97;;
21032;SDS011;10675;47.976;7.824;2023-03-01T06:15:01;12.27;;;6.17;;
21032;SDS011;10675;47.976;7.824;2023-03-01T06:17:31;11.77;;;7.10;;
21032;SDS011;10675;47.976;7.824;2023-03-01T06:20:02;12.57;;;6.03;;
21032;SDS011;10675;47.976;7.824;2023-03-01T06:22:33;13.20;;;5.30;;
21032;SDS011;10675;47.976;7.824;2023-03-01T06:24:58;11.07;;;5.80;;
21032;SDS011;10675;47.976;7.824;2023-03-01T06:27:24;10.47;;;6.07;;
21032;SDS011;10675;47.976;7.824;2023-03-01T06:29:49;11.53;;;6.17;;
21032;SDS011;10675;47.976;7.824;2023-03-01T06:32:15;12.43;;;5.67;;
21032;SDS011;10675;47.976;7.824;2023-03-01T06:34:41;7.97;;;5.13;;
21032;SDS011;10675;47.976;7.824;2023-03-01T06:37:07;9.80;;;6.23;;
21032;SDS011;10675;47.976;7.824;2023-03-01T06:39:33;8.97;;;5.10;;
21032;SDS011;10675;47.976;7.824;2023-03-01T06:41:59;7.90;;;4.97;;
21032;SDS011;10675;47.976;7.824;2023-03-01T06:44:24;9.33;;;5.63;;
21032;SDS011;10675;47.976;7.824;2023-03-01T06:46:50;12.33;;;5.80;;
21032;SDS011;10675;47.976;7.824;2023-03-01T06:49:16;10.93;;;5.97;;
21032;SDS011;10675;47.976;7.824;2023-03-01T06:51:42;9.73;;;5.37;;
21032;SDS011;10675;47.976;7.824;2023-03-01T06:54:08;8.63;;;5.67;;
21032;SDS011;10675;47.976;7.824;2023-03-01T06:56:34;12.33;;;6.00;;
21032;SDS011;10675;47.976;7.824;2023-03-01T06:59:00;10.23;;;5.47;;
21032;SDS011;10675;47.976;7.824;2023-03-01T07:01:25;9.27;;;5.57;;
21032;SDS011;10675;47.976;7.824;2023-03-01T07:03:51;9.90;;;5.77;;
21032;SDS011;10675;47.976;7.824;2023-03-01T07:06:16;10.70;;;5.80;;
21032;SDS011;10675;47.976;7.824;2023-03-01T07:08:42;10.17;;;5.93;;
21032;SDS011;10675;47.976;7.824;2023-03-01T07:11:08;10.03;;;5.20;;
21032;SDS011;10675;47.976;7.824;2023-03-01T07:13:33;9.83;;;6.03;;
21032;SDS011;10675;47.976;7.824;2023-03-01T07:15:59;12.83;;;6.20;;
21032;SDS011;10675;47.976;7.824;2023-03-01T07:18:25;11.23;;;6.70;;
21032;SDS011;10675;47.976;7.824;2023-03-01T07:20:50;9.57;;;6.27;;
21032;SDS011;10675;47.976;7.824;2023-03-01T07:23:16;12.53;;;5.67;;
21032;SDS011;10675;47.976;7.824;2023-03-01T07:25:41;11.47;;;6.30;;
21032;SDS011;10675;47.976;7.824;2023-03-01T07:28:07;11.83;;;6.30;;
21032;SDS011;10675;47.976;7.824;2023-03-01T07:30:32;9.90;;;6.00;;
21032;SDS011;10675;47.976;7.824;2023-03-01T07:32:58;10.07;;;5.80;;
21032;SDS011;10675;47.976;7.824;2023-03-01T07:35:27;8.50;;;5.93;;
21032;SDS011;10675;47.976;7.824;2023-03-01T07:37:52;11.27;;;6.37;;
21032;SDS011;10675;47.976;7.824;2023-03-01T07:40:18;8.40;;;6.10;;
21032;SDS011;10675;47.976;7.824;2023-03-01T07:42:44;12.40;;;5.93;;
21032;SDS011;10675;47.976;7.824;2023-03-01T07:45:10;13.13;;;6.60;;
21032;SDS011;10675;47.976;7.824;2023-03-01T07:47:36;11.03;;;5.90;;
21032;SDS011;10675;47.976;7.824;2023-03-01T07:50:02;12.07;;;5.70;;
21032;SDS011;10675;47.976;7.824;2023-03-01T07:52:28;12.53;;;6.57;;
21032;SDS011;10675;47.976;7.824;2023-03-01T07:54:54;10.57;;;5.70;;
21032;SDS011;10675;47.976;7.824;2023-03-01T07:57:20;12.13;;;6.33;;
21032;SDS011;10675;47.976;7.824;2023-03-01T07:59:45;12.43;;;6.57;;
21032;SDS011;10675;47.976;7.824;2023-03-01T08:02:11;12.03;;;6.60;;
21032;SDS011;10675;47.976;7.824;2023-03-01T08:04:36;12.27;;;6.90;;
21032;SDS011;10675;47.976;7.824;2023-03-01T08:07:04;14.67;;;6.47;;
21032;SDS011;10675;47.976;7.824;2023-03-01T08:09:30;12.47;;;6.00;;
21032;SDS011;10675;47.976;7.824;2023-03-01T08:11:56;8.63;;;5.20;;
21032;SDS011;10675;47.976;7.824;2023-03-01T08:14:24;11.77;;;6.00;;
21032;SDS011;10675;47.976;7.824;2023-03-01T08:16:50;8.70;;;5.37;;
21032;SDS011;10675;47.976;7.824;2023-03-01T08:19:15;14.33;;;6.87;;
21032;SDS011;10675;47.976;7.824;2023-03-01T08:21:41;10.43;;;6.03;;
21032;SDS011;10675;47.976;7.824;2023-03-01T08:24:07;15.67;;;6.50;;
21032;SDS011;10675;47.976;7.824;2023-03-01T08:26:35;13.33;;;6.33;;
21032;SDS011;10675;47.976;7.824;2023-03-01T08:29:01;9.83;;;5.67;;
21032;SDS011;10675;47.976;7.824;2023-03-01T08:33:58;10.97;;;5.70;;
21032;SDS011;10675;47.976;7.824;2023-03-01T08:36:26;10.37;;;6.60;;
21032;SDS011;10675;47.976;7.824;2023-03-01T08:38:57;12.90;;;6.27;;
21032;SDS011;10675;47.976;7.824;2023-03-01T08:41:23;13.70;;;6.40;;
21032;SDS011;10675;47.976;7.824;2023-03-01T08:43:49;9.63;;;5.93;;
21032;SDS011;10675;47.976;7.824;2023-03-01T08:46:15;10.13;;;5.93;;
21032;SDS011;10675;47.976;7.824;2023-03-01T08:48:41;11.93;;;6.27;;
21032;SDS011;10675;47.976;7.824;2023-03-01T08:51:12;11.93;;;6.17;;
21032;SDS011;10675;47.976;7.824;2023-03-01T08:53:39;12.30;;;6.40;;
21032;SDS011;10675;47.976;7.824;2023-03-01T08:56:05;12.27;;;6.73;;
21032;SDS011;10675;47.976;7.824;2023-03-01T08:58:32;10.13;;;6.13;;
21032;SDS011;10675;47.976;7.824;2023-03-01T09:00:58;11.37;;;6.80;;
21032;SDS011;10675;47.976;7.824;2023-03-01T09:03:24;10.33;;;6.33;;
21032;SDS011;10675;47.976;7.824;2023-03-01T09:05:50;12.30;;;6.20;;
21032;SDS011;10675;47.976;7.824;2023-03-01T09:08:17;11.93;;;6.00;;
21032;SDS011;10675;47.976;7.824;2023-03-01T09:10:43;10.10;;;6.80;;
21032;SDS011;10675;47.976;7.824;2023-03-01T09:13:08;11.30;;;6.50;;
21032;SDS011;10675;47.976;7.824;2023-03-01T09:15:36;17.67;;;6.43;;
21032;SDS011;10675;47.976;7.824;2023-03-01T09:18:02;13.17;;;6.93;;
21032;SDS011;10675;47.976;7.824;2023-03-01T09:20:28;10.73;;;6.57;;
21032;SDS011;10675;47.976;7.824;2023-03-01T09:22:55;14.60;;;6.73;;
21032;SDS011;10675;47.976;7.824;2023-03-01T09:25:21;9.17;;;6.27;;
21032;SDS011;10675;47.976;7.824;2023-03-01T09:27:46;13.30;;;7.10;;
21032;SDS011;10675;47.976;7.824;2023-03-01T09:30:12;13.27;;;6.60;;
21032;SDS011;10675;47.976;7.824;2023-03-01T09:32:38;14.33;;;6.93;;
21032;SDS011;10675;47.976;7.824;2023-03-01T09:35:07;12.53;;;6.17;;
21032;SDS011;10675;47.976;7.824;2023-03-01T09:37:34;15.33;;;7.63;;
21032;SDS011;10675;47.976;7.824;2023-03-01T09:40:00;9.70;;;6.00;;
21032;SDS011;10675;47.976;7.824;2023-03-01T09:42:28;11.63;;;6.57;;
21032;SDS011;10675;47.976;7.824;2023-03-01T09:45:00;12.37;;;6.67;;
21032;SDS011;10675;47.976;7.824;2023-03-01T09:47:31;10.87;;;5.70;;
21032;SDS011;10675;47.976;7.824;2023-03-01T09:55:08;12.27;;;6.63;;
21032;SDS011;10675;47.976;7.824;2023-03-01T09:57:45;13.90;;;6.97;;
21032;SDS011;10675;47.976;7.824;2023-03-01T10:00:43;11.33;;;6.67;;
21032;SDS011;10675;47.976;7.824;2023-03-01T10:06:04;13.23;;;7.10;;
21032;SDS011;10675;47.976;7.824;2023-03-01T10:09:02;15.50;;;7.97;;
21032;SDS011;10675;47.976;7.824;2023-03-01T10:11:31;15.77;;;7.23;;
21032;SDS011;10675;47.976;7.824;2023-03-01T10:16:58;15.30;;;7.80;;
21032;SDS011;10675;47.976;7.824;2023-03-01T10:19:44;13.67;;;7.30;;
21032;SDS011;10675;47.976;7.824;2023-03-01T10:22:18;14.80;;;7.13;;
21032;SDS011;10675;47.976;7.824;2023-03-01T10:24:46;14.37;;;7.43;;
21032;SDS011;10675;47.976;7.824;2023-03-01T10:27:26;12.23;;;7.13;;
21032;SDS011;10675;47.976;7.824;2023-03-01T10:32:59;14.60;;;7.80;;
21032;SDS011;10675;47.976;7.824;2023-03-01T10:35:25;13.40;;;7.70;;
21032;SDS011;10675;47.976;7.824;2023-03-01T10:38:03;14.13;;;7.37;;
21032;SDS011;10675;47.976;7.824;2023-03-01T10:40:31;9.93;;;7.30;;
21032;SDS011;10675;47.976;7.824;2023-03-01T10:42:58;9.77;;;7.03;;
21032;SDS011;10675;47.976;7.824;2023-03-01T10:48:03;11.17;;;6.67;;
21032;SDS011;10675;47.976;7.824;2023-03-01T10:50:45;11.20;;;7.33;;
21032;SDS011;10675;47.976;7.824;2023-03-01T10:58:34;15.37;;;7.83;;
21032;SDS011;10675;47.976;7.824;2023-03-01T11:01:04;11.93;;;7.40;;
21032;SDS011;10675;47.976;7.824;2023-03-01T11:03:35;14.60;;;8.17;;
21032;SDS011;10675;47.976;7.824;2023-03-01T11:06:04;13.63;;;7.80;;
21032;SDS011;10675;47.976;7.824;2023-03-01T11:08:45;13.67;;;7.57;;
21032;SDS011;10675;47.976;7.824;2023-03-01T11:13:38;14.40;;;7.57;;
21032;SDS011;10675;47.976;7.824;2023-03-01T11:19:00;15.30;;;7.70;;
21032;SDS011;10675;47.976;7.824;2023-03-01T11:21:30;13.30;;;7.10;;
21032;SDS011;10675;47.976;7.824;2023-03-01T11:23:59;14.47;;;7.80;;
21032;SDS011;10675;47.976;7.824;2023-03-01T11:26:26;11.90;;;7.60;;
21032;SDS011;10675;47.976;7.824;2023-03-01T11:28:54;14.13;;;8.03;;
21032;SDS011;10675;47.976;7.824;2023-03-01T11:31:23;12.80;;;7.47;;
21032;SDS011;10675;47.976;7.824;2023-03-01T11:34:03;12.70;;;7.47;;
21032;SDS011;10675;47.976;7.824;2023-03-01T11:36:43;13.13;;;7.03;;
21032;SDS011;10675;47.976;7.824;2023-03-01T11:39:21;11.67;;;8.30;;
21032;SDS011;10675;47.976;7.824;2023-03-01T11:42:00;18.47;;;7.97;;
21032;SDS011;10675;47.976;7.824;2023-03-01T11:44:35;13.27;;;7.83;;
21032;SDS011;10675;47.976;7.824;2023-03-01T11:49:38;13.30;;;7.57;;
21032;SDS011;10675;47.976;7.824;2023-03-01T11:52:23;14.57;;;8.00;;
21032;SDS011;10675;47.976;7.824;2023-03-01T11:58:17;11.07;;;7.10;;
21032;SDS011;10675;47.976;7.824;2023-03-01T12:03:53;14.50;;;7.53;;
21032;SDS011;10675;47.976;7.824;2023-03-01T12:06:26;14.67;;;8.03;;
21032;SDS011;10675;47.976;7.824;2023-03-01T12:11:51;12.50;;;7.90;;
21032;SDS011;10675;47.976;7.824;2023-03-01T12:17:37;14.23;;;7.67;;
21032;SDS011;10675;47.976;7.824;2023-03-01T12:23:16;15.03;;;7.43;;
21032;SDS011;10675;47.976;7.824;2023-03-01T12:37:06;11.50;;;6.93;;
21032;SDS011;10675;47.976;7.824;2023-03-01T12:42:36;13.83;;;7.77;;
21032;SDS011;10675;47.976;7.824;2023-03-01T12:47:54;14.17;;;8.10;;
21032;SDS011;10675;47.976;7.824;2023-03-01T12:50:43;11.73;;;7.17;;
21032;SDS011;10675;47.976;7.824;2023-03-01T12:56:19;13.47;;;7.30;;
21032;SDS011;10675;47.976;7.824;2023-03-01T13:04:12;11.90;;;6.57;;
21032;SDS011;10675;47.976;7.824;2023-03-01T13:06:53;14.40;;;7.30;;
21032;SDS011;10675;47.976;7.824;2023-03-01T13:09:34;10.13;;;7.10;;
21032;SDS011;10675;47.976;7.824;2023-03-01T13:17:48;11.30;;;7.03;;
21032;SDS011;10675;47.976;7.824;2023-03-01T13:20:17;13.97;;;6.57;;
21032;SDS011;10675;47.976;7.824;2023-03-01T13:22:46;10.93;;;6.43;;
21032;SDS011;10675;47.976;7.824;2023-03-01T13:25:19;9.93;;;7.03;;
21032;SDS011;10675;47.976;7.824;2023-03-01T13:27:45;12.17;;;7.30;;
21032;SDS011;10675;47.976;7.824;2023-03-01T13:34:00;13.23;;;7.33;;
21032;SDS011;10675;47.976;7.824;2023-03-01T13:35:55;11.03;;;6.83;;
21032;SDS011;10675;47.976;7.824;2023-03-01T13:38:39;12.63;;;6.90;;
21032;SDS011;10675;47.976;7.824;2023-03-01T13:41:14;9.40;;;6.27;;
21032;SDS011;10675;47.976;7.824;2023-03-01T13:43:41;9.80;;;6.20;;
21032;SDS011;10675;47.976;7.824;2023-03-01T13:46:10;10.00;;;6.20;;
21032;SDS011;10675;47.976;7.824;2023-03-01T13:48:42;10.30;;;6.50;;
21032;SDS011;10675;47.976;7.824;2023-03-01T13:51:10;9.57;;;6.70;;
21032;SDS011;10675;47.976;7.824;2023-03-01T13:53:42;9.37;;;6.20;;
21032;SDS011;10675;47.976;7.824;2023-03-01T13:56:19;11.63;;;6.33;;
21032;SDS011;10675;47.976;7.824;2023-03-01T13:58:53;10.83;;;7.70;;
21032;SDS011;10675;47.976;7.824;2023-03-01T14:01:27;9.13;;;6.60;;
21032;SDS011;10675;47.976;7.824;2023-03-01T14:03:55;13.37;;;6.83;;
21032;SDS011;10675;47.976;7.824;2023-03-01T14:06:25;9.33;;;5.83;;
21032;SDS011;10675;47.976;7.824;2023-03-01T14:08:59;8.90;;;6.07;;
21032;SDS011;10675;47.976;7.824;2023-03-01T14:11:31;10.33;;;6.77;;
21032;SDS011;10675;47.976;7.824;2023-03-01T14:19:40;13.10;;;7.13;;
21032;SDS011;10675;47.976;7.824;2023-03-01T14:27:58;9.57;;;6.47;;
21032;SDS011;10675;47.976;7.824;2023-03-01T14:30:49;13.77;;;6.50;;
21032;SDS011;10675;47.976;7.824;2023-03-01T14:38:33;9.57;;;6.83;;
21032;SDS011;10675;47.976;7.824;2023-03-01T14:41:07;10.57;;;6.93;;
21032;SDS011;10675;47.976;7.824;2023-03-01T14:43:36;9.23;;;6.27;;
21032;SDS011;10675;47.976;7.824;2023-03-01T14:46:04;10.77;;;6.53;;
21032;SDS011;10675;47.976;7.824;2023-03-01T14:48:29;9.87;;;6.67;;
21032;SDS011;10675;47.976;7.824;2023-03-01T14:50:56;9.87;;;7.10;;
21032;SDS011;10675;47.976;7.824;2023-03-01T14:53:26;10.47;;;6.93;;
21032;SDS011;10675;47.976;7.824;2023-03-01T14:55:59;10.97;;;6.90;;
21032;SDS011;10675;47.976;7.824;2023-03-01T14:58:27;10.77;;;6.83;;
21032;SDS011;10675;47.976;7.824;2023-03-01T15:00:54;11.93;;;7.80;;
21032;SDS011;10675;47.976;7.824;2023-03-01T15:06:06;11.37;;;7.27;;
21032;SDS011;10675;47.976;7.824;2023-03-01T15:08:33;11.03;;;7.17;;
21032;SDS011;10675;47.976;7.824;2023-03-01T15:11:05;12.97;;;6.83;;
21032;SDS011;10675;47.976;7.824;2023-03-01T15:13:42;13.00;;;7.20;;
21032;SDS011;10675;47.976;7.824;2023-03-01T15:16:12;10.87;;;7.90;;
21032;SDS011;10675;47.976;7.824;2023-03-01T15:18:43;9.23;;;6.67;;
21032;SDS011;10675;47.976;7.824;2023-03-01T15:21:18;9.53;;;6.83;;
21032;SDS011;10675;47.976;7.824;2023-03-01T15:23:51;15.23;;;9.00;;
21032;SDS011;10675;47.976;7.824;2023-03-01T15:26:24;16.80;;;9.77;;
21032;SDS011;10675;47.976;7.824;2023-03-01T15:28:54;18.00;;;10.10;;
21032;SDS011;10675;47.976;7.824;2023-03-01T15:31:32;15.87;;;9.80;;
21032;SDS011;10675;47.976;7.824;2023-03-01T15:39:03;15.90;;;8.93;;
21032;SDS011;10675;47.976;7.824;2023-03-01T15:41:38;16.30;;;9.67;;
21032;SDS011;10675;47.976;7.824;2023-03-01T15:46:51;15.03;;;9.27;;
21032;SDS011;10675;47.976;7.824;2023-03-01T15:51:49;17.33;;;8.97;;
21032;SDS011;10675;47.976;7.824;2023-03-01T15:54:19;15.37;;;9.50;;
21032;SDS011;10675;47.976;7.824;2023-03-01T15:56:47;14.90;;;9.30;;
21032;SDS011;10675;47.976;7.824;2023-03-01T15:59:12;16.03;;;8.43;;
21032;SDS011;10675;47.976;7.824;2023-03-01T16:01:42;16.40;;;9.43;;
21032;SDS011;10675;47.976;7.824;2023-03-01T16:04:09;14.97;;;8.03;;
21032;SDS011;10675;47.976;7.824;2023-03-01T16:06:41;19.50;;;10.43;;
21032;SDS011;10675;47.976;7.824;2023-03-01T16:09:06;17.43;;;10.20;;
21032;SDS011;10675;47.976;7.824;2023-03-01T16:11:32;15.93;;;9.50;;
21032;SDS011;10675;47.976;7.824;2023-03-01T16:13:59;18.33;;;9.70;;
21032;SDS011;10675;47.976;7.824;2023-03-01T16:16:24;16.20;;;9.57;;
21032;SDS011;10675;47.976;7.824;2023-03-01T16:18:50;16.23;;;9.80;;
21032;SDS011;10675;47.976;7.824;2023-03-01T16:21:18;16.63;;;10.07;;
21032;SDS011;10675;47.976;7.824;2023-03-01T16:23:49;17.07;;;9.43;;
21032;SDS011;10675;47.976;7.824;2023-03-01T16:26:15;17.93;;;9.23;;
21032;SDS011;10675;47.976;7.824;2023-03-01T16:28:42;15.87;;;9.70;;
21032;SDS011;10675;47.976;7.824;2023-03-01T16:31:08;17.13;;;9.60;;
21032;SDS011;10675;47.976;7.824;2023-03-01T16:33:34;17.00;;;9.60;;
21032;SDS011;10675;47.976;7.824;2023-03-01T16:36:09;17.70;;;10.13;;
21032;SDS011;10675;47.976;7.824;2023-03-01T16:38:36;16.77;;;9.60;;
21032;SDS011;10675;47.976;7.824;2023-03-01T16:41:03;19.77;;;10.10;;
21032;SDS011;10675;47.976;7.824;2023-03-01T16:43:29;16.43;;;8.67;;
21032;SDS011;10675;47.976;7.824;2023-03-01T16:45:55;17.80;;;9.77;;
21032;SDS011;10675;47.976;7.824;2023-03-01T16:48:21;17.93;;;9.17;;
21032;SDS011;10675;47.976;7.824;2023-03-01T16:50:55;15.93;;;8.90;;
21032;SDS011;10675;47.976;7.824;2023-03-01T16:53:21;17.87;;;9.23;;